Time;durP1;ratioP1;P1;durP2;ratioP2;P2;SDS_P1;SDS_P2;PMS_P1;PMS_P2;Temp;Humidity;BMP_temperature;BMP_pressure;BME280_temperature;BME280_humidity;BME280_pressure;Samples;Min_cycle;Max_cycle;Signal;HPM_P1;HPM_P2
2022/01/21 00:02:03;;;;;;;4.83;1.67;;;0.90;99.90;;;;;;4994872;28;20479;-71
2022/01/21 00:04:34;;;;;;;8.73;1.50;;;0.80;99.90;;;;;;4994664;28;20484;-71
2022/01/21 00:07:03;;;;;;;3.73;1.30;;;1.00;99.90;;;;;;4994582;28;20497;-71
2022/01/21 00:09:33;;;;;;;8.00;1.90;;;1.10;99.90;;;;;;4994426;28;21004;-71
2022/01/21 00:12:01;;;;;;;9.70;1.73;;;1.10;99.90;;;;;;4994956;28;20466;-71
2022/01/21 00:14:29;;;;;;;8.60;1.90;;;1.00;99.90;;;;;;4994823;28;20604;-71
2022/01/21 00:16:57;;;;;;;7.17;1.50;;;1.20;99.90;;;;;;4994695;28;20477;-72
2022/01/21 00:19:26;;;;;;;5.13;1.83;;;1.10;99.90;;;;;;4994388;28;20477;-70
2022/01/21 00:30:27;;;;;;;7.57;1.53;;;0.80;99.90;;;;;;5008842;28;21017;-71
2022/01/21 00:32:55;;;;;;;6.50;1.20;;;0.60;99.90;;;;;;4994490;28;20477;-72
2022/01/21 00:35:23;;;;;;;5.47;1.57;;;0.40;99.90;;;;;;4994346;28;20480;-71
2022/01/21 00:37:52;;;;;;;5.57;1.67;;;0.30;99.90;;;;;;4994122;28;20461;-71
2022/01/21 00:40:23;;;;;;;5.87;1.50;;;0.50;99.90;;;;;;4994339;28;20486;-71
2022/01/21 00:43:10;;;;;;;6.50;1.40;;;0.40;99.90;;;;;;4993909;28;20823;-71
2022/01/21 00:45:38;;;;;;;4.97;1.20;;;0.60;99.90;;;;;;4993911;28;20531;-69
2022/01/21 00:48:07;;;;;;;3.87;1.40;;;0.80;99.90;;;;;;4999055;28;20460;-71
2022/01/21 00:50:35;;;;;;;12.00;1.33;;;0.90;99.90;;;;;;4993705;28;20473;-71
2022/01/21 00:53:04;;;;;;;4.53;1.23;;;0.90;99.90;;;;;;4993856;28;20831;-71
2022/01/21 00:55:33;;;;;;;4.33;1.20;;;0.60;99.90;;;;;;4993651;28;20473;-71
2022/01/21 00:58:01;;;;;;;6.07;1.50;;;0.80;99.90;;;;;;4993460;28;20489;-71
2022/01/21 01:00:31;;;;;;;7.33;1.27;;;0.70;99.90;;;;;;4993372;28;20902;-68
2022/01/21 01:02:59;;;;;;;3.40;1.30;;;0.60;99.90;;;;;;4998404;28;20471;-71
2022/01/21 01:05:28;;;;;;;6.53;1.20;;;0.80;99.90;;;;;;4993738;28;20560;-71
2022/01/21 01:07:58;;;;;;;9.37;1.97;;;0.40;99.90;;;;;;4993590;28;20480;-71
2022/01/21 01:10:41;;;;;;;6.07;1.33;;;0.60;99.90;;;;;;4992301;28;20483;-70
2022/01/21 01:21:29;;;;;;;9.63;1.67;;;0.30;99.90;;;;;;4972423;28;20481;-71
2022/01/21 01:27:35;;;;;;;8.87;1.70;;;0.60;99.90;;;;;;4974002;28;20454;-72
2022/01/21 01:29:40;;;;;;;9.73;1.77;;;0.70;99.90;;;;;;4998441;28;20981;-71
2022/01/21 01:32:09;;;;;;;9.57;1.57;;;0.50;99.90;;;;;;4993132;28;21013;-71
2022/01/21 01:34:37;;;;;;;10.93;2.00;;;0.30;99.90;;;;;;5007715;28;20473;-71
2022/01/21 01:37:12;;;;;;;4.97;1.03;;;0.50;99.90;;;;;;4993054;28;20478;-71
2022/01/21 01:39:44;;;;;;;7.43;1.70;;;0.40;99.90;;;;;;4995468;28;20491;-71
2022/01/21 01:42:39;;;;;;;7.57;1.53;;;0.40;99.90;;;;;;4991690;28;20879;-71
2022/01/21 01:50:40;;;;;;;10.23;1.50;;;0.20;99.90;;;;;;4989059;28;20516;-71
2022/01/21 01:53:09;;;;;;;4.63;1.50;;;0.20;99.90;;;;;;4973100;28;20473;-71
2022/01/21 01:55:38;;;;;;;7.07;1.47;;;0.20;99.90;;;;;;4973258;28;21068;-71
2022/01/21 01:58:06;;;;;;;8.00;1.53;;;0.30;99.90;;;;;;4973250;28;20842;-71
2022/01/21 02:00:35;;;;;;;4.77;1.00;;;0.40;99.90;;;;;;4973568;28;20482;-70
2022/01/21 02:03:08;;;;;;;9.10;1.73;;;0.60;99.90;;;;;;4982670;28;20492;-71
2022/01/21 02:05:38;;;;;;;6.53;1.37;;;0.80;99.90;;;;;;5006714;28;20495;-71
2022/01/21 02:08:10;;;;;;;4.80;1.60;;;0.90;99.90;;;;;;4992413;28;20531;-71
2022/01/21 02:10:39;;;;;;;8.93;1.90;;;0.90;99.90;;;;;;5007676;28;21001;-71
2022/01/21 02:13:19;;;;;;;6.57;1.70;;;1.00;99.90;;;;;;5003648;28;20830;-71
2022/01/21 02:16:05;;;;;;;8.30;1.80;;;0.60;99.90;;;;;;4996230;28;20491;-68
2022/01/21 02:21:35;;;;;;;6.83;1.33;;;0.60;99.90;;;;;;4993890;28;20464;-71
2022/01/21 02:24:08;;;;;;;10.07;2.17;;;0.70;99.90;;;;;;4996483;28;20473;-70
2022/01/21 02:26:36;;;;;;;8.80;1.60;;;0.80;99.90;;;;;;5004649;28;20472;-71
2022/01/21 02:29:06;;;;;;;9.47;1.57;;;1.20;99.90;;;;;;5009150;28;20477;-70
2022/01/21 02:31:37;;;;;;;9.70;2.47;;;0.90;99.90;;;;;;4995755;28;20474;-71
2022/01/21 02:34:06;;;;;;;11.43;1.80;;;1.00;99.90;;;;;;4986301;28;20552;-71
2022/01/21 02:36:35;;;;;;;4.80;1.67;;;1.00;99.90;;;;;;5008989;28;20840;-70
2022/01/21 02:39:05;;;;;;;7.87;1.90;;;1.20;99.90;;;;;;5019710;28;20977;-72
2022/01/21 02:41:33;;;;;;;8.53;1.50;;;0.90;99.90;;;;;;5010386;28;20531;-71
2022/01/21 02:44:01;;;;;;;10.80;1.87;;;1.00;99.90;;;;;;4997517;28;20461;-71
2022/01/21 02:46:35;;;;;;;8.60;1.70;;;0.90;99.90;;;;;;5022166;28;20475;-68
2022/01/21 02:49:04;;;;;;;11.03;1.87;;;0.90;99.90;;;;;;5014799;28;20471;-71
2022/01/21 02:51:32;;;;;;;10.77;1.60;;;0.70;99.90;;;;;;5026522;28;20511;-71
2022/01/21 02:54:04;;;;;;;11.60;1.93;;;0.90;99.90;;;;;;4995905;28;20954;-71
2022/01/21 02:56:34;;;;;;;8.97;1.47;;;0.80;99.90;;;;;;4990405;28;20492;-71
2022/01/21 02:59:03;;;;;;;13.13;1.97;;;1.00;99.90;;;;;;5006555;28;20985;-71
2022/01/21 03:01:34;;;;;;;6.57;1.90;;;1.10;99.90;;;;;;4990012;28;20476;-71
2022/01/21 03:04:03;;;;;;;8.67;1.80;;;1.10;99.90;;;;;;5006703;28;20461;-71
2022/01/21 03:06:32;;;;;;;9.60;1.90;;;1.10;99.90;;;;;;4989915;28;20819;-70
2022/01/21 03:09:02;;;;;;;9.90;1.80;;;1.20;99.90;;;;;;5006678;28;20827;-70
2022/01/21 03:11:30;;;;;;;12.10;1.70;;;1.20;99.90;;;;;;4991141;28;20474;-70
2022/01/21 03:13:58;;;;;;;9.33;1.97;;;0.90;99.90;;;;;;5006391;28;20469;-71
2022/01/21 03:16:27;;;;;;;7.47;1.70;;;1.00;99.90;;;;;;5006220;28;20482;-70
2022/01/21 03:18:56;;;;;;;10.57;1.77;;;1.10;99.90;;;;;;5006414;28;20828;-71
2022/01/21 03:21:24;;;;;;;12.00;1.80;;;1.20;99.90;;;;;;4991223;28;20478;-70
2022/01/21 03:23:54;;;;;;;10.67;2.57;;;1.20;99.90;;;;;;5005797;28;20496;-70
2022/01/21 03:26:28;;;;;;;9.87;1.70;;;1.10;99.90;;;;;;5010900;28;20850;-68
2022/01/21 03:28:58;;;;;;;10.20;1.87;;;0.90;99.90;;;;;;4983878;28;20510;-70
2022/01/21 03:31:30;;;;;;;12.27;2.43;;;0.90;99.90;;;;;;5006341;28;20512;-71
2022/01/21 03:34:00;;;;;;;10.87;1.97;;;0.80;99.90;;;;;;5006297;28;20473;-70
2022/01/21 03:36:31;;;;;;;9.73;2.23;;;0.80;99.90;;;;;;4989826;28;20481;-70
2022/01/21 03:38:59;;;;;;;14.20;1.90;;;0.90;99.90;;;;;;5006389;28;20478;-70
2022/01/21 03:41:30;;;;;;;12.00;2.60;;;0.90;99.90;;;;;;4989760;28;20495;-71
2022/01/21 03:43:59;;;;;;;10.07;2.00;;;1.00;99.90;;;;;;5006228;28;20906;-70
2022/01/21 03:46:29;;;;;;;11.77;2.50;;;0.90;99.90;;;;;;5006163;28;20477;-70
2022/01/21 03:48:57;;;;;;;14.20;2.30;;;1.00;99.90;;;;;;5011777;28;20469;-70
2022/01/21 03:51:26;;;;;;;9.93;2.17;;;0.90;99.90;;;;;;4990792;28;20478;-70
2022/01/21 03:53:55;;;;;;;13.73;2.20;;;0.90;99.90;;;;;;5005913;28;20493;-70
2022/01/21 03:56:27;;;;;;;7.10;1.67;;;0.90;99.90;;;;;;4989699;28;21009;-71
2022/01/21 03:58:57;;;;;;;9.07;1.90;;;0.90;99.90;;;;;;5005967;28;20477;-70
2022/01/21 04:01:28;;;;;;;9.20;1.90;;;1.10;99.90;;;;;;5005343;28;20481;-70
2022/01/21 04:03:57;;;;;;;8.57;1.87;;;1.20;99.90;;;;;;4995728;28;20489;-69
2022/01/21 04:06:25;;;;;;;11.20;2.27;;;1.10;99.90;;;;;;5005436;28;20553;-70
2022/01/21 04:08:54;;;;;;;10.10;2.07;;;1.10;99.90;;;;;;5005511;28;20478;-70
2022/01/21 04:11:23;;;;;;;10.10;1.87;;;1.20;99.90;;;;;;5005877;28;20482;-70
2022/01/21 04:13:53;;;;;;;9.73;2.27;;;1.30;99.90;;;;;;5005974;28;20846;-70
2022/01/21 04:16:23;;;;;;;12.03;2.13;;;1.30;99.90;;;;;;4989582;28;20489;-70
2022/01/21 04:18:52;;;;;;;13.20;1.90;;;1.20;99.90;;;;;;5005914;28;20482;-70
2022/01/21 04:21:21;;;;;;;7.80;1.70;;;1.20;99.90;;;;;;4989419;28;20475;-70
2022/01/21 04:23:51;;;;;;;11.90;1.90;;;1.20;99.90;;;;;;5005884;28;20481;-70
2022/01/21 04:26:28;;;;;;;11.27;1.70;;;1.20;99.90;;;;;;5005654;28;20544;-70
2022/01/21 04:29:06;;;;;;;9.97;2.00;;;1.30;99.90;;;;;;5000750;28;20501;-70
2022/01/21 04:32:06;;;;;;;9.67;2.37;;;1.30;99.90;;;;;;4993661;28;20466;-70
2022/01/21 04:34:36;;;;;;;6.97;1.53;;;1.30;99.90;;;;;;5005160;28;20553;-69
2022/01/21 04:37:09;;;;;;;9.00;1.77;;;1.30;99.90;;;;;;5005405;28;20474;-70
2022/01/21 04:39:53;;;;;;;7.27;1.80;;;1.30;99.90;;;;;;5018587;28;20487;-70
2022/01/21 04:47:56;;;;;;;10.27;1.63;;;1.40;99.90;;;;;;4979274;28;20476;-69
2022/01/21 04:50:26;;;;;;;13.33;1.90;;;1.50;99.90;;;;;;4973024;28;20486;-68
2022/01/21 04:52:58;;;;;;;6.40;1.43;;;1.60;99.90;;;;;;5008534;28;20504;-69
2022/01/21 04:55:34;;;;;;;10.90;2.20;;;1.60;99.90;;;;;;4989424;28;20502;-69
2022/01/21 04:58:03;;;;;;;7.03;1.70;;;1.60;99.90;;;;;;4973289;28;20495;-69
2022/01/21 05:00:32;;;;;;;6.37;1.53;;;1.60;99.90;;;;;;4988019;28;20475;-69
2022/01/21 05:03:02;;;;;;;15.30;2.63;;;1.60;99.90;;;;;;4989046;28;20478;-69
2022/01/21 05:05:31;;;;;;;12.23;2.47;;;1.60;99.90;;;;;;4972916;28;20481;-69
2022/01/21 05:08:04;;;;;;;9.17;1.83;;;1.60;99.90;;;;;;4991976;28;20550;-69
2022/01/21 05:10:35;;;;;;;10.30;1.83;;;1.60;99.90;;;;;;5008009;28;20504;-69
2022/01/21 05:13:04;;;;;;;9.20;1.70;;;1.60;99.90;;;;;;4993816;28;20483;-69
2022/01/21 05:15:46;;;;;;;9.20;1.50;;;1.60;99.90;;;;;;4992021;28;20485;-69
2022/01/21 05:18:16;;;;;;;13.00;1.70;;;1.70;99.90;;;;;;5007947;28;21040;-69
2022/01/21 05:20:57;;;;;;;7.47;1.40;;;1.70;99.90;;;;;;5008320;28;20572;-69
2022/01/21 05:23:38;;;;;;;5.73;1.50;;;1.70;99.90;;;;;;5004500;28;20565;-69
2022/01/21 05:26:06;;;;;;;9.17;1.90;;;1.70;99.90;;;;;;4997643;28;20838;-69
2022/01/21 05:28:35;;;;;;;6.27;1.37;;;1.60;99.90;;;;;;4990068;28;20536;-69
2022/01/21 05:31:23;;;;;;;7.57;1.50;;;1.60;99.90;;;;;;4983746;28;20476;-69
2022/01/21 05:34:11;;;;;;;12.50;1.63;;;1.70;99.90;;;;;;4999148;28;20485;-69
2022/01/21 05:36:43;;;;;;;8.10;1.77;;;1.60;99.90;;;;;;5011476;28;20477;-69
2022/01/21 05:39:31;;;;;;;19.53;2.33;;;1.70;99.90;;;;;;5015343;28;20488;-69
2022/01/21 05:42:16;;;;;;;12.30;1.70;;;1.60;99.90;;;;;;5001614;28;21005;-69
2022/01/21 05:48:11;;;;;;;10.20;1.67;;;1.70;99.90;;;;;;4973448;28;20476;-69
2022/01/21 05:50:59;;;;;;;9.57;1.57;;;1.70;99.90;;;;;;4973386;28;20566;-69
2022/01/21 05:53:53;;;;;;;10.93;2.33;;;1.70;99.90;;;;;;4992071;28;20474;-69
2022/01/21 05:56:27;;;;;;;9.70;1.70;;;1.70;99.90;;;;;;5007566;28;20559;-69
2022/01/21 05:59:09;;;;;;;10.57;2.00;;;1.60;99.90;;;;;;4992443;28;20536;-69
2022/01/21 06:01:38;;;;;;;10.03;1.50;;;1.60;99.90;;;;;;5007434;28;20479;-70
2022/01/21 06:04:08;;;;;;;13.13;1.97;;;1.60;99.90;;;;;;5002414;28;20494;-69
2022/01/21 06:06:37;;;;;;;10.33;2.00;;;1.60;99.90;;;;;;5003887;28;20487;-69
2022/01/21 06:09:07;;;;;;;8.93;1.73;;;1.70;99.90;;;;;;5007225;28;20486;-69
2022/01/21 06:11:36;;;;;;;9.07;2.60;;;1.70;99.90;;;;;;5006465;28;20479;-69
2022/01/21 06:14:04;;;;;;;9.93;1.60;;;1.70;99.90;;;;;;4989120;28;20462;-70
2022/01/21 06:16:34;;;;;;;10.37;2.43;;;1.70;99.90;;;;;;5006897;28;20482;-69
2022/01/21 06:19:02;;;;;;;13.90;2.23;;;1.70;99.90;;;;;;4999570;28;20510;-70
2022/01/21 06:21:31;;;;;;;8.57;1.53;;;1.70;99.90;;;;;;4991867;28;20473;-68
2022/01/21 06:24:00;;;;;;;9.53;1.53;;;1.70;99.90;;;;;;4990321;28;20557;-69
2022/01/21 06:26:28;;;;;;;10.80;1.83;;;1.70;99.90;;;;;;4992362;28;20570;-69
2022/01/21 06:28:56;;;;;;;15.00;2.10;;;1.70;99.90;;;;;;4992075;28;20489;-70
2022/01/21 06:31:24;;;;;;;10.70;1.67;;;1.70;99.90;;;;;;4985790;28;20829;-69
2022/01/21 06:33:53;;;;;;;11.40;1.93;;;1.70;99.90;;;;;;4991518;28;20892;-69
2022/01/21 06:36:22;;;;;;;6.83;1.67;;;1.70;99.90;;;;;;4991757;28;20570;-69
2022/01/21 06:38:50;;;;;;;6.03;1.57;;;1.60;99.90;;;;;;4991685;28;20539;-68
2022/01/21 06:41:20;;;;;;;14.03;2.20;;;1.60;99.90;;;;;;4996145;28;20482;-70
2022/01/21 06:43:48;;;;;;;8.63;1.60;;;1.60;99.90;;;;;;4991200;28;20470;-70
2022/01/21 06:46:16;;;;;;;9.80;1.77;;;1.60;99.90;;;;;;4991527;28;20477;-70
2022/01/21 06:48:45;;;;;;;7.43;1.87;;;1.50;99.90;;;;;;4995574;28;20481;-70
2022/01/21 06:51:13;;;;;;;8.43;1.47;;;1.50;99.90;;;;;;4991313;28;20474;-70
2022/01/21 06:53:41;;;;;;;9.03;1.90;;;1.50;99.90;;;;;;4992650;28;20469;-70
2022/01/21 06:56:09;;;;;;;10.30;1.67;;;1.50;99.90;;;;;;4987137;28;21076;-70
2022/01/21 06:58:38;;;;;;;10.43;1.97;;;1.50;99.90;;;;;;4983978;28;20545;-69
2022/01/21 07:01:06;;;;;;;10.70;1.73;;;1.40;99.90;;;;;;4987854;28;21060;-70
2022/01/21 07:03:35;;;;;;;7.67;1.60;;;1.40;99.90;;;;;;4991124;28;20484;-68
2022/01/21 07:06:03;;;;;;;12.33;2.07;;;1.40;99.90;;;;;;4991472;28;20480;-70
2022/01/21 07:08:34;;;;;;;9.47;1.90;;;1.40;99.90;;;;;;4990870;28;20838;-70
2022/01/21 07:11:02;;;;;;;9.53;1.90;;;1.40;99.90;;;;;;5002307;28;20504;-68
2022/01/21 07:13:30;;;;;;;8.87;2.17;;;1.40;99.90;;;;;;5000554;28;20835;-70
2022/01/21 07:16:00;;;;;;;10.67;2.07;;;1.40;99.90;;;;;;4998815;28;20885;-70
2022/01/21 07:18:28;;;;;;;8.80;2.27;;;1.40;99.90;;;;;;5001147;28;20481;-70
2022/01/21 07:20:57;;;;;;;9.30;2.67;;;1.30;99.90;;;;;;4991275;28;21084;-70
2022/01/21 07:23:25;;;;;;;11.70;2.33;;;1.30;99.90;;;;;;4991071;28;20585;-68
2022/01/21 07:25:53;;;;;;;12.70;2.40;;;1.30;99.90;;;;;;4991340;28;20474;-71
2022/01/21 07:28:21;;;;;;;12.33;2.07;;;1.40;99.90;;;;;;4991066;28;20490;-70
2022/01/21 07:30:50;;;;;;;10.00;1.90;;;1.60;99.90;;;;;;4991061;28;20478;-70
2022/01/21 07:33:20;;;;;;;9.03;2.20;;;1.60;99.90;;;;;;4990610;28;20484;-71
2022/01/21 07:35:48;;;;;;;7.23;2.23;;;1.70;99.90;;;;;;4999674;28;20503;-70
2022/01/21 07:38:16;;;;;;;7.27;2.17;;;1.70;99.90;;;;;;5004825;28;20439;-70
2022/01/21 07:40:45;;;;;;;8.97;1.80;;;1.70;99.90;;;;;;4992613;28;21029;-69
2022/01/21 07:43:13;;;;;;;12.93;2.30;;;1.60;99.90;;;;;;4991969;28;20442;-70
2022/01/21 07:45:41;;;;;;;11.73;2.30;;;1.60;99.90;;;;;;5011622;28;20453;-70
2022/01/21 07:48:10;;;;;;;9.43;1.93;;;1.70;99.90;;;;;;5003020;28;20992;-70
2022/01/21 07:50:40;;;;;;;9.90;2.43;;;1.90;99.90;;;;;;4987219;28;20499;-70
2022/01/21 07:53:08;;;;;;;6.37;2.20;;;1.90;99.90;;;;;;4973216;28;20537;-70
2022/01/21 07:55:36;;;;;;;10.53;1.87;;;1.80;99.90;;;;;;4961898;28;20476;-70
2022/01/21 07:58:05;;;;;;;9.53;2.27;;;2.00;99.90;;;;;;4965026;28;21014;-69
2022/01/21 08:00:33;;;;;;;9.33;2.07;;;2.00;99.90;;;;;;4966791;28;20506;-69
2022/01/21 08:03:02;;;;;;;10.37;2.20;;;1.80;99.90;;;;;;4966745;28;20525;-67
2022/01/21 08:05:34;;;;;;;7.67;1.90;;;1.80;99.90;;;;;;4966445;28;20487;-68
2022/01/21 08:08:04;;;;;;;9.23;2.07;;;1.80;99.90;;;;;;4966253;28;20491;-69
2022/01/21 08:10:33;;;;;;;9.23;2.20;;;2.00;99.90;;;;;;4966030;28;20519;-70
2022/01/21 08:13:02;;;;;;;7.70;2.10;;;1.90;99.90;;;;;;4968637;28;20467;-70
2022/01/21 08:15:30;;;;;;;10.23;2.23;;;1.80;99.90;;;;;;4970177;28;20469;-68
2022/01/21 08:17:58;;;;;;;8.83;2.23;;;1.80;99.90;;;;;;4970084;28;20584;-70
2022/01/21 08:20:28;;;;;;;9.40;2.00;;;1.80;99.90;;;;;;4970004;28;20485;-70
2022/01/21 08:22:56;;;;;;;7.20;2.10;;;1.60;99.90;;;;;;4969707;28;21043;-70
2022/01/21 08:25:26;;;;;;;4.60;1.97;;;1.50;99.90;;;;;;4969597;28;20863;-70
2022/01/21 08:27:54;;;;;;;5.07;1.50;;;1.60;99.90;;;;;;4969136;28;21066;-70
2022/01/21 08:30:22;;;;;;;9.93;2.33;;;1.60;99.90;;;;;;4969640;28;20599;-69
2022/01/21 08:32:50;;;;;;;12.23;2.27;;;1.60;99.90;;;;;;4969895;28;21446;-69
2022/01/21 08:35:18;;;;;;;9.87;2.40;;;1.90;99.90;;;;;;4971383;28;21010;-70
2022/01/21 08:37:47;;;;;;;10.77;2.20;;;2.20;99.90;;;;;;4971377;28;20808;-69
2022/01/21 08:40:15;;;;;;;6.30;2.37;;;2.40;99.90;;;;;;4972896;28;20474;-70
2022/01/21 08:42:45;;;;;;;10.23;2.87;;;2.50;99.90;;;;;;4973328;28;20508;-70
2022/01/21 08:45:19;;;;;;;8.97;2.47;;;2.70;99.90;;;;;;4971123;28;21006;-69
2022/01/21 08:47:47;;;;;;;8.60;2.20;;;2.80;99.90;;;;;;4970611;28;20529;-69
2022/01/21 08:50:19;;;;;;;9.50;2.53;;;3.00;99.90;;;;;;4970686;28;20499;-69
2022/01/21 08:52:48;;;;;;;12.03;3.00;;;3.10;99.90;;;;;;4982767;28;20466;-69
2022/01/21 08:55:18;;;;;;;8.27;2.43;;;3.10;99.90;;;;;;4988360;28;20475;-69
2022/01/21 08:57:49;;;;;;;8.10;2.40;;;3.10;99.90;;;;;;4991737;28;20886;-69
2022/01/21 09:00:20;;;;;;;10.33;2.50;;;3.20;99.90;;;;;;4988426;28;20517;-68
2022/01/21 09:02:51;;;;;;;7.53;2.30;;;3.30;99.90;;;;;;4991075;28;20923;-69
2022/01/21 09:05:19;;;;;;;8.97;2.07;;;3.30;99.90;;;;;;4990866;28;20489;-69
2022/01/21 09:07:47;;;;;;;10.90;2.40;;;3.40;99.90;;;;;;4992370;28;20476;-68
2022/01/21 09:10:15;;;;;;;6.53;2.10;;;3.40;99.90;;;;;;4992642;28;20507;-68
2022/01/21 09:12:43;;;;;;;9.23;2.23;;;3.50;99.90;;;;;;4991756;28;20477;-68
2022/01/21 09:15:13;;;;;;;6.83;2.30;;;3.60;99.90;;;;;;4989834;28;20478;-68
2022/01/21 09:17:41;;;;;;;12.60;2.90;;;3.70;99.90;;;;;;4992342;28;21001;-66
2022/01/21 09:20:10;;;;;;;11.30;2.83;;;3.80;99.90;;;;;;4992763;28;20464;-68
2022/01/21 09:22:38;;;;;;;8.63;2.30;;;3.80;99.90;;;;;;4993638;28;20479;-68
2022/01/21 09:25:08;;;;;;;7.73;2.23;;;3.90;99.90;;;;;;4992431;28;20504;-67
2022/01/21 09:27:36;;;;;;;9.13;2.00;;;3.80;99.90;;;;;;4994140;28;20573;-65
2022/01/21 09:30:06;;;;;;;7.87;2.07;;;4.00;99.90;;;;;;4992234;28;20486;-68
2022/01/21 09:32:36;;;;;;;8.77;1.93;;;4.10;99.90;;;;;;4992045;28;20999;-68
2022/01/21 09:35:06;;;;;;;9.90;1.77;;;4.20;99.90;;;;;;4991729;28;20983;-68
2022/01/21 09:37:34;;;;;;;9.57;2.20;;;4.30;99.90;;;;;;4994290;28;20495;-68
2022/01/21 09:40:02;;;;;;;8.10;1.80;;;4.30;99.90;;;;;;4983626;28;20548;-68
2022/01/21 09:42:33;;;;;;;8.27;2.10;;;4.40;99.90;;;;;;5003831;28;21035;-68
2022/01/21 09:45:04;;;;;;;8.03;2.10;;;4.50;99.90;;;;;;4989852;28;20552;-68
2022/01/21 09:47:33;;;;;;;8.13;2.00;;;4.50;99.90;;;;;;4992719;28;20881;-67
2022/01/21 09:50:03;;;;;;;6.27;1.70;;;4.50;99.90;;;;;;4991829;28;20468;-68
2022/01/21 09:52:32;;;;;;;13.67;2.10;;;4.60;99.90;;;;;;4991388;28;20471;-67
2022/01/21 09:55:00;;;;;;;7.73;1.70;;;4.50;99.90;;;;;;4991105;28;20499;-68
2022/01/21 09:57:28;;;;;;;7.70;1.83;;;4.50;99.90;;;;;;4991194;28;20487;-68
2022/01/21 09:59:58;;;;;;;8.23;1.73;;;4.50;99.90;;;;;;4990622;28;20604;-67
2022/01/21 10:02:29;;;;;;;10.93;2.00;;;4.50;99.90;;;;;;4990966;28;20690;-67
2022/01/21 10:04:59;;;;;;;5.73;1.60;;;4.50;99.90;;;;;;4989922;28;20888;-67
2022/01/21 10:07:30;;;;;;;10.67;1.97;;;4.60;99.90;;;;;;4990859;28;20515;-67
2022/01/21 10:10:06;;;;;;;6.80;1.57;;;4.60;99.90;;;;;;4987819;28;20488;-67
2022/01/21 10:12:49;;;;;;;5.47;1.30;;;4.60;99.90;;;;;;4969351;28;20484;-67
2022/01/21 10:15:18;;;;;;;9.77;2.10;;;4.50;99.90;;;;;;4970888;28;20473;-67
2022/01/21 10:18:08;;;;;;;11.80;2.03;;;4.50;99.90;;;;;;4971437;28;21016;-67
2022/01/21 10:20:39;;;;;;;8.97;1.87;;;4.50;99.90;;;;;;4970497;28;20477;-67
2022/01/21 10:23:10;;;;;;;9.97;1.83;;;4.40;99.90;;;;;;4967920;28;20486;-67
2022/01/21 10:25:40;;;;;;;6.70;1.70;;;4.30;99.90;;;;;;4970490;28;20481;-67
2022/01/21 10:28:11;;;;;;;7.13;1.40;;;4.30;99.90;;;;;;4972001;28;20496;-67
2022/01/21 10:30:42;;;;;;;9.10;1.73;;;4.20;99.90;;;;;;4989716;28;20477;-67
2022/01/21 10:33:21;;;;;;;9.50;1.90;;;4.30;99.90;;;;;;4994778;28;20564;-67
2022/01/21 10:35:51;;;;;;;7.83;1.43;;;4.30;99.90;;;;;;4989446;28;20465;-67
2022/01/21 10:38:27;;;;;;;9.07;1.57;;;4.40;99.90;;;;;;4990902;28;20488;-67
2022/01/21 10:41:03;;;;;;;8.03;1.70;;;4.50;99.90;;;;;;4990828;28;20479;-67
2022/01/21 10:43:33;;;;;;;5.97;1.73;;;4.70;99.90;;;;;;4990724;28;20531;-67
2022/01/21 10:46:03;;;;;;;8.70;1.93;;;4.80;99.90;;;;;;4990711;28;20479;-67
2022/01/21 10:48:32;;;;;;;7.73;1.87;;;4.80;99.90;;;;;;4990420;28;20463;-67
2022/01/21 10:51:17;;;;;;;10.33;1.70;;;4.90;99.90;;;;;;4992521;28;20471;-67
2022/01/21 10:53:47;;;;;;;8.83;1.60;;;4.80;99.90;;;;;;4990821;28;20552;-67
2022/01/21 10:56:17;;;;;;;10.80;1.70;;;4.80;99.90;;;;;;4988665;28;20479;-67
2022/01/21 10:58:50;;;;;;;8.13;1.63;;;4.80;99.90;;;;;;4988336;28;20534;-67
2022/01/21 11:01:22;;;;;;;8.93;1.70;;;4.70;99.90;;;;;;4989981;28;20483;-67
2022/01/21 11:03:59;;;;;;;8.80;1.50;;;4.70;99.90;;;;;;4992407;28;20504;-67
2022/01/21 11:06:35;;;;;;;9.97;1.70;;;4.70;99.90;;;;;;4986708;28;20500;-66
2022/01/21 11:09:19;;;;;;;7.50;1.43;;;4.70;99.90;;;;;;4986278;28;20487;-67
2022/01/21 11:11:49;;;;;;;8.20;1.60;;;4.80;99.90;;;;;;4985905;28;21307;-67
2022/01/21 11:14:19;;;;;;;7.13;1.43;;;4.90;99.90;;;;;;4985938;28;20566;-67
2022/01/21 11:16:50;;;;;;;5.03;1.33;;;4.90;99.90;;;;;;4985583;28;21120;-66
2022/01/21 11:19:38;;;;;;;9.83;2.37;;;4.90;99.90;;;;;;4986406;28;20809;-67
2022/01/21 11:22:07;;;;;;;6.43;1.67;;;4.90;99.90;;;;;;4986068;28;20499;-66
2022/01/21 11:24:48;;;;;;;10.23;2.07;;;4.90;99.90;;;;;;4987179;28;20980;-67
2022/01/21 11:27:21;;;;;;;8.33;1.83;;;4.90;99.90;;;;;;4990830;28;20881;-67
2022/01/21 11:29:50;;;;;;;8.20;2.00;;;5.00;99.90;;;;;;4991058;28;20230;-67
2022/01/21 11:32:18;;;;;;;8.03;1.87;;;5.00;99.90;;;;;;5006589;28;20562;-66
2022/01/21 11:34:47;;;;;;;9.07;1.63;;;5.10;99.90;;;;;;4990927;28;20460;-67
2022/01/21 11:37:15;;;;;;;10.70;2.00;;;5.10;99.90;;;;;;4995968;28;20516;-66
2022/01/21 11:39:45;;;;;;;7.03;1.60;;;5.00;99.90;;;;;;4991622;28;20477;-67
2022/01/21 11:42:18;;;;;;;10.17;1.70;;;5.00;99.90;;;;;;5006103;28;21036;-66
2022/01/21 11:44:52;;;;;;;5.30;1.70;;;5.00;99.90;;;;;;4984677;28;20555;-66
2022/01/21 11:47:48;;;;;;;8.43;1.70;;;5.00;99.90;;;;;;4986913;28;20502;-66
2022/01/21 11:50:18;;;;;;;6.70;2.77;;;5.00;99.90;;;;;;4991844;28;20468;-67
2022/01/21 11:52:46;;;;;;;5.40;1.83;;;5.10;99.90;;;;;;4992178;28;20468;-66
2022/01/21 11:55:32;;;;;;;8.97;2.20;;;5.00;99.90;;;;;;5013439;28;20483;-66
2022/01/21 11:58:14;;;;;;;8.20;2.37;;;5.00;99.90;;;;;;5001247;28;20906;-67
2022/01/21 12:00:43;;;;;;;13.47;4.67;;;4.90;99.90;;;;;;4994417;28;20879;-66
2022/01/21 12:03:11;;;;;;;23.67;12.17;;;4.90;99.90;;;;;;4998564;28;20233;-64
2022/01/21 12:05:40;;;;;;;10.03;4.87;;;4.80;99.90;;;;;;5004503;28;20995;-67
2022/01/21 12:08:08;;;;;;;12.30;5.17;;;4.80;99.90;;;;;;5000905;28;20484;-67
2022/01/21 12:10:43;;;;;;;8.43;3.03;;;4.80;99.90;;;;;;4987335;28;20534;-67
2022/01/21 12:13:18;;;;;;;9.17;2.97;;;4.90;99.90;;;;;;4990841;28;20980;-67
2022/01/21 12:19:21;;;;;;;8.90;3.33;;;4.80;99.90;;;;;;4990017;28;20544;-67
2022/01/21 12:21:51;;;;;;;9.20;2.50;;;4.90;99.90;;;;;;4986371;28;20882;-68
2022/01/21 12:24:46;;;;;;;7.60;1.83;;;4.80;99.90;;;;;;4991058;28;20245;-66
2022/01/21 12:27:16;;;;;;;5.60;1.43;;;4.80;99.90;;;;;;4993797;28;20483;-67
2022/01/21 12:29:44;;;;;;;7.20;2.20;;;4.90;99.90;;;;;;4986099;28;20483;-67
2022/01/21 12:35:18;;;;;;;5.97;1.40;;;4.90;99.90;;;;;;4987110;28;20247;-67
2022/01/21 12:41:33;;;;;;;9.37;1.70;;;5.00;99.90;;;;;;4965121;28;20762;-67
2022/01/21 12:44:05;;;;;;;8.97;2.27;;;5.00;99.90;;;;;;4972051;28;22193;-67
2022/01/21 12:46:36;;;;;;;3.83;2.17;;;5.00;99.90;;;;;;4968007;28;20266;-67
2022/01/21 12:49:45;;;;;;;5.57;1.80;;;5.00;99.90;;;;;;4970209;28;20269;-67
2022/01/21 12:52:51;;;;;;;5.40;1.77;;;5.00;99.90;;;;;;4971900;28;20241;-67
2022/01/21 12:58:11;;;;;;;7.13;1.83;;;5.20;99.90;;;;;;4972514;28;20962;-67
2022/01/21 13:00:41;;;;;;;4.47;1.40;;;5.20;99.90;;;;;;4968078;28;20823;-67
2022/01/21 13:03:17;;;;;;;8.77;1.73;;;5.20;99.90;;;;;;4967975;28;20242;-67
2022/01/21 13:05:55;;;;;;;8.40;1.43;;;5.20;99.90;;;;;;4970286;28;20461;-67
2022/01/21 13:08:34;;;;;;;8.63;1.70;;;5.20;99.90;;;;;;4970216;28;20266;-66
2022/01/21 13:11:12;;;;;;;9.13;3.47;;;5.20;99.90;;;;;;4998948;28;21222;-67
2022/01/21 13:16:29;;;;;;;13.93;3.60;;;5.10;99.90;;;;;;4998913;28;20479;-67
2022/01/21 13:19:02;;;;;;;8.20;3.30;;;5.20;99.90;;;;;;4999382;28;20245;-67
2022/01/21 13:21:32;;;;;;;8.20;2.13;;;5.20;99.90;;;;;;4981270;28;20477;-67
2022/01/21 13:24:10;;;;;;;13.67;2.73;;;5.20;99.90;;;;;;4990161;28;20241;-65
2022/01/21 13:26:40;;;;;;;10.60;2.33;;;5.20;99.90;;;;;;4993047;28;20536;-67
2022/01/21 13:29:10;;;;;;;9.23;2.47;;;5.30;99.90;;;;;;4994072;28;20467;-67
2022/01/21 13:31:56;;;;;;;10.53;2.40;;;5.30;99.90;;;;;;4992980;28;20476;-67
2022/01/21 13:34:28;;;;;;;10.73;2.30;;;5.40;99.90;;;;;;4994368;28;20321;-67
2022/01/21 13:36:58;;;;;;;11.23;2.90;;;5.50;99.90;;;;;;4997264;28;20720;-67
2022/01/21 13:39:31;;;;;;;11.63;2.60;;;5.40;99.90;;;;;;4984624;28;20479;-66
2022/01/21 13:42:02;;;;;;;9.83;2.57;;;5.40;99.90;;;;;;4981853;28;20909;-67
2022/01/21 13:44:34;;;;;;;9.57;2.40;;;5.40;99.90;;;;;;4992224;28;20308;-67
2022/01/21 13:47:06;;;;;;;9.60;3.07;;;5.40;99.90;;;;;;4993052;28;20593;-67
2022/01/21 13:49:35;;;;;;;13.40;3.00;;;5.40;99.90;;;;;;4992373;28;20316;-66
2022/01/21 13:52:08;;;;;;;9.73;2.93;;;5.50;99.90;;;;;;4989719;28;20507;-66
2022/01/21 13:54:43;;;;;;;13.83;3.10;;;5.50;99.90;;;;;;4986962;28;20268;-66
2022/01/21 13:57:11;;;;;;;8.77;2.00;;;5.50;99.90;;;;;;4979515;28;20255;-67
2022/01/21 13:59:45;;;;;;;12.03;2.70;;;5.50;99.90;;;;;;4989908;28;20244;-67
2022/01/21 14:02:17;;;;;;;11.07;2.30;;;5.50;99.90;;;;;;4982487;28;20472;-67
2022/01/21 14:04:54;;;;;;;10.50;3.13;;;5.50;99.90;;;;;;4982438;28;20484;-67
2022/01/21 14:07:24;;;;;;;12.83;3.60;;;5.50;99.90;;;;;;4984162;28;20254;-66
2022/01/21 14:09:52;;;;;;;13.13;3.23;;;5.50;99.90;;;;;;4985540;28;20230;-66